sensor_id;sensor_type;location;lat;lon;timestamp;P1;durP1;ratioP1;P2;durP2;ratioP2
2748;SDS011;1382;52.142;11.618;2023-07-20T00:02:17;4.90;;;2.60;;
2748;SDS011;1382;52.142;11.618;2023-07-20T00:04:44;2.20;;;1.93;;
2748;SDS011;1382;52.142;11.618;2023-07-20T00:07:11;4.93;;;2.10;;
2748;SDS011;1382;52.142;11.618;2023-07-20T00:09:37;3.90;;;2.20;;
2748;SDS011;1382;52.142;11.618;2023-07-20T00:12:05;6.40;;;2.80;;
2748;SDS011;1382;52.142;11.618;2023-07-20T00:14:32;4.60;;;3.27;;
2748;SDS011;1382;52.142;11.618;2023-07-20T00:16:59;2.93;;;1.80;;
2748;SDS011;1382;52.142;11.618;2023-07-20T00:19:29;4.57;;;2.27;;
2748;SDS011;1382;52.142;11.618;2023-07-20T00:21:56;3.60;;;1.80;;
2748;SDS011;1382;52.142;11.618;2023-07-20T00:24:23;6.13;;;2.30;;
2748;SDS011;1382;52.142;11.618;2023-07-20T00:26:50;3.77;;;2.30;;
2748;SDS011;1382;52.142;11.618;2023-07-20T00:29:17;7.10;;;1.70;;
2748;SDS011;1382;52.142;11.618;2023-07-20T00:31:44;2.20;;;2.00;;
2748;SDS011;1382;52.142;11.618;2023-07-20T00:34:13;4.33;;;2.10;;
2748;SDS011;1382;52.142;11.618;2023-07-20T00:36:41;3.60;;;2.00;;
2748;SDS011;1382;52.142;11.618;2023-07-20T00:39:08;2.70;;;1.47;;
2748;SDS011;1382;52.142;11.618;2023-07-20T00:41:34;5.00;;;1.90;;
2748;SDS011;1382;52.142;11.618;2023-07-20T00:44:01;3.53;;;1.60;;
2748;SDS011;1382;52.142;11.618;2023-07-20T00:46:28;3.23;;;1.80;;
2748;SDS011;1382;52.142;11.618;2023-07-20T00:48:55;4.63;;;2.10;;
2748;SDS011;1382;52.142;11.618;2023-07-20T00:51:22;8.50;;;2.23;;
2748;SDS011;1382;52.142;11.618;2023-07-20T00:53:52;4.67;;;1.93;;
2748;SDS011;1382;52.142;11.618;2023-07-20T00:56:19;7.30;;;2.10;;
2748;SDS011;1382;52.142;11.618;2023-07-20T00:58:48;2.07;;;1.37;;
2748;SDS011;1382;52.142;11.618;2023-07-20T01:01:15;2.53;;;2.10;;
2748;SDS011;1382;52.142;11.618;2023-07-20T01:03:41;2.30;;;1.53;;
2748;SDS011;1382;52.142;11.618;2023-07-20T01:06:10;3.97;;;1.60;;
2748;SDS011;1382;52.142;11.618;2023-07-20T01:08:46;6.47;;;1.73;;
2748;SDS011;1382;52.142;11.618;2023-07-20T01:11:22;4.60;;;2.10;;
2748;SDS011;1382;52.142;11.618;2023-07-20T01:13:52;7.23;;;2.63;;
2748;SDS011;1382;52.142;11.618;2023-07-20T01:16:19;6.40;;;2.63;;
2748;SDS011;1382;52.142;11.618;2023-07-20T01:18:46;4.10;;;2.30;;
2748;SDS011;1382;52.142;11.618;2023-07-20T01:21:15;2.80;;;1.90;;
2748;SDS011;1382;52.142;11.618;2023-07-20T01:24:00;5.47;;;2.20;;
2748;SDS011;1382;52.142;11.618;2023-07-20T01:27:04;4.17;;;1.63;;
2748;SDS011;1382;52.142;11.618;2023-07-20T01:32:52;4.07;;;2.50;;
2748;SDS011;1382;52.142;11.618;2023-07-20T01:35:21;2.70;;;2.50;;
2748;SDS011;1382;52.142;11.618;2023-07-20T01:37:50;2.60;;;2.40;;
2748;SDS011;1382;52.142;11.618;2023-07-20T01:40:17;6.13;;;1.87;;
2748;SDS011;1382;52.142;11.618;2023-07-20T01:42:46;2.50;;;1.97;;
2748;SDS011;1382;52.142;11.618;2023-07-20T01:45:12;6.30;;;4.00;;
2748;SDS011;1382;52.142;11.618;2023-07-20T01:47:39;3.20;;;2.63;;
2748;SDS011;1382;52.142;11.618;2023-07-20T01:50:08;8.63;;;2.90;;
2748;SDS011;1382;52.142;11.618;2023-07-20T01:52:35;6.50;;;2.60;;
2748;SDS011;1382;52.142;11.618;2023-07-20T01:55:02;8.73;;;3.73;;
2748;SDS011;1382;52.142;11.618;2023-07-20T01:57:29;4.77;;;2.57;;
2748;SDS011;1382;52.142;11.618;2023-07-20T01:59:56;4.80;;;2.27;;
2748;SDS011;1382;52.142;11.618;2023-07-20T02:02:23;1.80;;;1.60;;
2748;SDS011;1382;52.142;11.618;2023-07-20T02:04:52;1.97;;;1.80;;
2748;SDS011;1382;52.142;11.618;2023-07-20T02:07:21;1.90;;;1.80;;
2748;SDS011;1382;52.142;11.618;2023-07-20T02:09:47;5.87;;;2.80;;
2748;SDS011;1382;52.142;11.618;2023-07-20T02:12:14;2.83;;;2.50;;
2748;SDS011;1382;52.142;11.618;2023-07-20T02:14:41;5.10;;;2.30;;
2748;SDS011;1382;52.142;11.618;2023-07-20T02:17:08;3.03;;;1.30;;
2748;SDS011;1382;52.142;11.618;2023-07-20T02:19:35;2.50;;;2.13;;
2748;SDS011;1382;52.142;11.618;2023-07-20T02:22:02;6.50;;;3.63;;
2748;SDS011;1382;52.142;11.618;2023-07-20T02:24:30;3.30;;;2.70;;
2748;SDS011;1382;52.142;11.618;2023-07-20T02:26:57;3.47;;;2.70;;
2748;SDS011;1382;52.142;11.618;2023-07-20T02:29:24;3.07;;;2.80;;
2748;SDS011;1382;52.142;11.618;2023-07-20T02:31:50;2.50;;;2.30;;
2748;SDS011;1382;52.142;11.618;2023-07-20T02:34:17;4.10;;;3.20;;
2748;SDS011;1382;52.142;11.618;2023-07-20T02:36:44;6.37;;;2.10;;
2748;SDS011;1382;52.142;11.618;2023-07-20T02:39:11;5.37;;;3.03;;
2748;SDS011;1382;52.142;11.618;2023-07-20T02:41:39;3.00;;;2.70;;
2748;SDS011;1382;52.142;11.618;2023-07-20T02:44:06;3.57;;;2.67;;
2748;SDS011;1382;52.142;11.618;2023-07-20T02:46:32;8.13;;;3.43;;
2748;SDS011;1382;52.142;11.618;2023-07-20T02:48:59;7.77;;;3.47;;
2748;SDS011;1382;52.142;11.618;2023-07-20T02:51:26;4.07;;;1.80;;
2748;SDS011;1382;52.142;11.618;2023-07-20T02:53:53;6.07;;;2.37;;
2748;SDS011;1382;52.142;11.618;2023-07-20T02:56:20;5.73;;;3.00;;
2748;SDS011;1382;52.142;11.618;2023-07-20T02:58:48;5.23;;;3.03;;
2748;SDS011;1382;52.142;11.618;2023-07-20T03:01:15;6.70;;;3.40;;
2748;SDS011;1382;52.142;11.618;2023-07-20T03:03:42;3.27;;;2.30;;
2748;SDS011;1382;52.142;11.618;2023-07-20T03:06:09;10.43;;;3.00;;
2748;SDS011;1382;52.142;11.618;2023-07-20T03:08:36;6.90;;;3.20;;
2748;SDS011;1382;52.142;11.618;2023-07-20T03:11:03;9.47;;;2.53;;
2748;SDS011;1382;52.142;11.618;2023-07-20T03:13:29;8.87;;;2.57;;
2748;SDS011;1382;52.142;11.618;2023-07-20T03:15:58;9.40;;;3.50;;
2748;SDS011;1382;52.142;11.618;2023-07-20T03:18:24;6.40;;;3.10;;
2748;SDS011;1382;52.142;11.618;2023-07-20T03:20:51;9.50;;;3.77;;
2748;SDS011;1382;52.142;11.618;2023-07-20T03:23:18;8.67;;;2.90;;
2748;SDS011;1382;52.142;11.618;2023-07-20T03:25:45;6.40;;;3.27;;
2748;SDS011;1382;52.142;11.618;2023-07-20T03:28:12;14.07;;;3.00;;
2748;SDS011;1382;52.142;11.618;2023-07-20T03:30:38;9.23;;;2.93;;
2748;SDS011;1382;52.142;11.618;2023-07-20T03:33:06;3.73;;;2.70;;
2748;SDS011;1382;52.142;11.618;2023-07-20T03:35:33;3.93;;;2.43;;
2748;SDS011;1382;52.142;11.618;2023-07-20T03:38:00;4.90;;;2.90;;
2748;SDS011;1382;52.142;11.618;2023-07-20T03:40:27;5.03;;;2.57;;
2748;SDS011;1382;52.142;11.618;2023-07-20T03:42:54;6.70;;;3.50;;
2748;SDS011;1382;52.142;11.618;2023-07-20T03:45:21;8.50;;;3.10;;
2748;SDS011;1382;52.142;11.618;2023-07-20T03:47:47;6.53;;;2.63;;
2748;SDS011;1382;52.142;11.618;2023-07-20T03:50:16;4.57;;;2.80;;
2748;SDS011;1382;52.142;11.618;2023-07-20T03:52:43;9.83;;;2.90;;
2748;SDS011;1382;52.142;11.618;2023-07-20T03:55:10;8.70;;;3.40;;
2748;SDS011;1382;52.142;11.618;2023-07-20T03:57:36;8.73;;;3.30;;
2748;SDS011;1382;52.142;11.618;2023-07-20T04:00:04;12.90;;;3.13;;
2748;SDS011;1382;52.142;11.618;2023-07-20T04:02:32;4.83;;;1.90;;
2748;SDS011;1382;52.142;11.618;2023-07-20T04:04:58;3.57;;;2.30;;
2748;SDS011;1382;52.142;11.618;2023-07-20T04:07:27;9.73;;;2.80;;
2748;SDS011;1382;52.142;11.618;2023-07-20T04:09:53;7.33;;;3.10;;
2748;SDS011;1382;52.142;11.618;2023-07-20T04:12:20;7.50;;;2.60;;
2748;SDS011;1382;52.142;11.618;2023-07-20T04:14:47;6.27;;;2.77;;
2748;SDS011;1382;52.142;11.618;2023-07-20T04:17:14;7.57;;;3.80;;
2748;SDS011;1382;52.142;11.618;2023-07-20T04:19:40;9.97;;;3.17;;
2748;SDS011;1382;52.142;11.618;2023-07-20T04:22:07;10.50;;;2.77;;
2748;SDS011;1382;52.142;11.618;2023-07-20T04:24:35;7.97;;;3.40;;
2748;SDS011;1382;52.142;11.618;2023-07-20T04:27:02;4.87;;;3.23;;
2748;SDS011;1382;52.142;11.618;2023-07-20T04:29:29;5.00;;;1.80;;
2748;SDS011;1382;52.142;11.618;2023-07-20T04:31:56;6.60;;;3.80;;
2748;SDS011;1382;52.142;11.618;2023-07-20T04:34:23;7.93;;;3.63;;
2748;SDS011;1382;52.142;11.618;2023-07-20T04:36:50;9.00;;;3.00;;
2748;SDS011;1382;52.142;11.618;2023-07-20T04:39:16;6.73;;;3.10;;
2748;SDS011;1382;52.142;11.618;2023-07-20T04:41:58;6.13;;;3.60;;
2748;SDS011;1382;52.142;11.618;2023-07-20T04:44:25;8.23;;;2.87;;
2748;SDS011;1382;52.142;11.618;2023-07-20T04:46:51;7.93;;;3.03;;
2748;SDS011;1382;52.142;11.618;2023-07-20T04:49:18;6.20;;;2.67;;
2748;SDS011;1382;52.142;11.618;2023-07-20T04:51:45;10.87;;;2.97;;
2748;SDS011;1382;52.142;11.618;2023-07-20T04:54:12;11.30;;;2.83;;
2748;SDS011;1382;52.142;11.618;2023-07-20T04:56:39;4.07;;;3.07;;
2748;SDS011;1382;52.142;11.618;2023-07-20T04:59:07;3.63;;;2.97;;
2748;SDS011;1382;52.142;11.618;2023-07-20T05:01:34;5.90;;;3.30;;
2748;SDS011;1382;52.142;11.618;2023-07-20T05:04:01;5.67;;;2.77;;
2748;SDS011;1382;52.142;11.618;2023-07-20T05:06:28;6.17;;;2.87;;
2748;SDS011;1382;52.142;11.618;2023-07-20T05:08:55;3.83;;;2.53;;
2748;SDS011;1382;52.142;11.618;2023-07-20T05:11:22;2.47;;;2.27;;
2748;SDS011;1382;52.142;11.618;2023-07-20T05:13:49;4.73;;;1.97;;
2748;SDS011;1382;52.142;11.618;2023-07-20T05:16:17;1.67;;;1.57;;
2748;SDS011;1382;52.142;11.618;2023-07-20T05:18:44;2.37;;;2.00;;
2748;SDS011;1382;52.142;11.618;2023-07-20T05:21:10;4.57;;;2.03;;
2748;SDS011;1382;52.142;11.618;2023-07-20T05:23:37;6.33;;;2.07;;
2748;SDS011;1382;52.142;11.618;2023-07-20T05:26:04;1.40;;;1.30;;
2748;SDS011;1382;52.142;11.618;2023-07-20T05:28:31;5.40;;;1.63;;
2748;SDS011;1382;52.142;11.618;2023-07-20T05:30:58;5.73;;;1.60;;
2748;SDS011;1382;52.142;11.618;2023-07-20T05:33:26;1.20;;;1.10;;
2748;SDS011;1382;52.142;11.618;2023-07-20T05:35:53;3.10;;;1.80;;
2748;SDS011;1382;52.142;11.618;2023-07-20T05:38:19;2.83;;;1.10;;
2748;SDS011;1382;52.142;11.618;2023-07-20T05:40:46;9.80;;;1.97;;
2748;SDS011;1382;52.142;11.618;2023-07-20T05:43:13;4.70;;;1.60;;
2748;SDS011;1382;52.142;11.618;2023-07-20T05:45:41;3.67;;;1.60;;
2748;SDS011;1382;52.142;11.618;2023-07-20T05:48:08;1.50;;;1.40;;
2748;SDS011;1382;52.142;11.618;2023-07-20T05:50:36;1.70;;;1.40;;
2748;SDS011;1382;52.142;11.618;2023-07-20T05:53:03;4.30;;;1.47;;
2748;SDS011;1382;52.142;11.618;2023-07-20T05:55:30;2.20;;;1.50;;
2748;SDS011;1382;52.142;11.618;2023-07-20T05:57:57;1.87;;;1.20;;
2748;SDS011;1382;52.142;11.618;2023-07-20T06:00:24;1.77;;;1.20;;
2748;SDS011;1382;52.142;11.618;2023-07-20T06:02:51;2.73;;;1.37;;
2748;SDS011;1382;52.142;11.618;2023-07-20T06:05:18;1.67;;;1.37;;
2748;SDS011;1382;52.142;11.618;2023-07-20T06:07:46;3.53;;;1.40;;
2748;SDS011;1382;52.142;11.618;2023-07-20T06:10:13;3.13;;;1.20;;
2748;SDS011;1382;52.142;11.618;2023-07-20T06:12:40;2.00;;;1.53;;
2748;SDS011;1382;52.142;11.618;2023-07-20T06:15:23;2.30;;;1.83;;
2748;SDS011;1382;52.142;11.618;2023-07-20T06:17:51;2.33;;;1.33;;
2748;SDS011;1382;52.142;11.618;2023-07-20T06:20:18;1.90;;;1.40;;
2748;SDS011;1382;52.142;11.618;2023-07-20T06:22:45;3.27;;;1.50;;
2748;SDS011;1382;52.142;11.618;2023-07-20T06:25:13;1.63;;;1.17;;
2748;SDS011;1382;52.142;11.618;2023-07-20T06:27:40;1.87;;;1.00;;
2748;SDS011;1382;52.142;11.618;2023-07-20T06:30:08;4.93;;;1.40;;
2748;SDS011;1382;52.142;11.618;2023-07-20T06:32:35;3.57;;;1.10;;
2748;SDS011;1382;52.142;11.618;2023-07-20T06:35:02;1.97;;;1.30;;
2748;SDS011;1382;52.142;11.618;2023-07-20T06:37:30;1.90;;;1.10;;
2748;SDS011;1382;52.142;11.618;2023-07-20T06:39:58;2.60;;;1.10;;
2748;SDS011;1382;52.142;11.618;2023-07-20T06:42:27;1.90;;;0.87;;
2748;SDS011;1382;52.142;11.618;2023-07-20T06:45:14;1.27;;;1.17;;
2748;SDS011;1382;52.142;11.618;2023-07-20T06:47:41;1.30;;;1.20;;
2748;SDS011;1382;52.142;11.618;2023-07-20T06:50:09;3.43;;;1.20;;
2748;SDS011;1382;52.142;11.618;2023-07-20T06:52:43;3.47;;;1.10;;
2748;SDS011;1382;52.142;11.618;2023-07-20T06:55:11;2.03;;;1.23;;
2748;SDS011;1382;52.142;11.618;2023-07-20T06:57:38;2.37;;;1.20;;
2748;SDS011;1382;52.142;11.618;2023-07-20T07:00:05;2.90;;;1.47;;
2748;SDS011;1382;52.142;11.618;2023-07-20T07:02:33;9.13;;;1.97;;
2748;SDS011;1382;52.142;11.618;2023-07-20T07:05:00;2.50;;;1.13;;
2748;SDS011;1382;52.142;11.618;2023-07-20T07:07:44;2.93;;;1.30;;
2748;SDS011;1382;52.142;11.618;2023-07-20T07:10:12;1.33;;;1.00;;
2748;SDS011;1382;52.142;11.618;2023-07-20T07:12:39;0.90;;;0.80;;
2748;SDS011;1382;52.142;11.618;2023-07-20T07:15:06;2.40;;;1.10;;
2748;SDS011;1382;52.142;11.618;2023-07-20T07:17:34;1.20;;;0.63;;
2748;SDS011;1382;52.142;11.618;2023-07-20T07:20:03;2.20;;;1.10;;
2748;SDS011;1382;52.142;11.618;2023-07-20T07:22:34;1.63;;;1.00;;
2748;SDS011;1382;52.142;11.618;2023-07-20T07:25:00;1.67;;;1.30;;
2748;SDS011;1382;52.142;11.618;2023-07-20T07:27:29;3.93;;;1.10;;
2748;SDS011;1382;52.142;11.618;2023-07-20T07:29:55;2.73;;;1.20;;
2748;SDS011;1382;52.142;11.618;2023-07-20T07:32:22;1.57;;;0.97;;
2748;SDS011;1382;52.142;11.618;2023-07-20T07:34:50;2.80;;;1.30;;
2748;SDS011;1382;52.142;11.618;2023-07-20T07:37:17;2.03;;;1.10;;
2748;SDS011;1382;52.142;11.618;2023-07-20T07:39:43;3.10;;;1.23;;
2748;SDS011;1382;52.142;11.618;2023-07-20T07:42:11;1.57;;;0.80;;
2748;SDS011;1382;52.142;11.618;2023-07-20T07:44:39;3.80;;;1.27;;
2748;SDS011;1382;52.142;11.618;2023-07-20T07:47:06;3.63;;;1.30;;
2748;SDS011;1382;52.142;11.618;2023-07-20T07:49:33;3.13;;;1.33;;
2748;SDS011;1382;52.142;11.618;2023-07-20T07:52:00;0.93;;;0.63;;
2748;SDS011;1382;52.142;11.618;2023-07-20T07:54:26;1.17;;;0.60;;
2748;SDS011;1382;52.142;11.618;2023-07-20T07:56:53;1.80;;;1.03;;
2748;SDS011;1382;52.142;11.618;2023-07-20T07:59:20;3.90;;;0.90;;
2748;SDS011;1382;52.142;11.618;2023-07-20T08:01:48;3.80;;;0.57;;
2748;SDS011;1382;52.142;11.618;2023-07-20T08:04:15;3.37;;;0.87;;
2748;SDS011;1382;52.142;11.618;2023-07-20T08:06:42;2.00;;;0.70;;
2748;SDS011;1382;52.142;11.618;2023-07-20T08:09:08;1.70;;;0.97;;
2748;SDS011;1382;52.142;11.618;2023-07-20T08:11:35;2.60;;;0.60;;
2748;SDS011;1382;52.142;11.618;2023-07-20T08:14:02;4.00;;;0.80;;
2748;SDS011;1382;52.142;11.618;2023-07-20T08:16:29;3.90;;;0.87;;
2748;SDS011;1382;52.142;11.618;2023-07-20T08:18:57;1.30;;;0.80;;
2748;SDS011;1382;52.142;11.618;2023-07-20T08:21:24;1.90;;;0.90;;
2748;SDS011;1382;52.142;11.618;2023-07-20T08:23:51;1.80;;;0.90;;
2748;SDS011;1382;52.142;11.618;2023-07-20T08:26:18;1.70;;;1.00;;
2748;SDS011;1382;52.142;11.618;2023-07-20T08:28:45;0.83;;;0.70;;
2748;SDS011;1382;52.142;11.618;2023-07-20T08:31:11;1.77;;;0.80;;
2748;SDS011;1382;52.142;11.618;2023-07-20T08:33:38;1.53;;;0.80;;
2748;SDS011;1382;52.142;11.618;2023-07-20T08:36:07;1.27;;;0.93;;
2748;SDS011;1382;52.142;11.618;2023-07-20T08:38:37;3.80;;;0.50;;
2748;SDS011;1382;52.142;11.618;2023-07-20T08:41:04;2.43;;;1.10;;
2748;SDS011;1382;52.142;11.618;2023-07-20T08:43:31;1.27;;;0.50;;
2748;SDS011;1382;52.142;11.618;2023-07-20T08:45:59;1.63;;;0.60;;
2748;SDS011;1382;52.142;11.618;2023-07-20T08:48:27;0.70;;;0.70;;
2748;SDS011;1382;52.142;11.618;2023-07-20T08:50:55;1.30;;;0.87;;
2748;SDS011;1382;52.142;11.618;2023-07-20T08:53:25;3.43;;;0.90;;
2748;SDS011;1382;52.142;11.618;2023-07-20T08:55:54;4.53;;;0.93;;
2748;SDS011;1382;52.142;11.618;2023-07-20T08:58:21;1.07;;;0.97;;
2748;SDS011;1382;52.142;11.618;2023-07-20T09:00:51;2.80;;;0.90;;
2748;SDS011;1382;52.142;11.618;2023-07-20T09:03:19;2.60;;;1.23;;
2748;SDS011;1382;52.142;11.618;2023-07-20T09:05:46;1.80;;;1.40;;
2748;SDS011;1382;52.142;11.618;2023-07-20T09:08:13;2.07;;;1.60;;
2748;SDS011;1382;52.142;11.618;2023-07-20T09:10:41;2.03;;;1.80;;
2748;SDS011;1382;52.142;11.618;2023-07-20T09:13:08;4.10;;;2.47;;
2748;SDS011;1382;52.142;11.618;2023-07-20T09:15:36;6.80;;;2.50;;
2748;SDS011;1382;52.142;11.618;2023-07-20T09:18:03;3.67;;;2.43;;
2748;SDS011;1382;52.142;11.618;2023-07-20T09:20:31;3.30;;;2.40;;
2748;SDS011;1382;52.142;11.618;2023-07-20T09:22:58;2.20;;;2.00;;
2748;SDS011;1382;52.142;11.618;2023-07-20T09:25:26;3.53;;;3.23;;
2748;SDS011;1382;52.142;11.618;2023-07-20T09:28:01;3.00;;;2.57;;
2748;SDS011;1382;52.142;11.618;2023-07-20T09:30:31;3.60;;;2.30;;
2748;SDS011;1382;52.142;11.618;2023-07-20T09:32:59;3.93;;;1.90;;
2748;SDS011;1382;52.142;11.618;2023-07-20T09:35:26;2.30;;;2.10;;
2748;SDS011;1382;52.142;11.618;2023-07-20T09:38:07;2.37;;;2.17;;
2748;SDS011;1382;52.142;11.618;2023-07-20T09:40:37;2.50;;;2.23;;
2748;SDS011;1382;52.142;11.618;2023-07-20T09:43:08;5.47;;;1.73;;
2748;SDS011;1382;52.142;11.618;2023-07-20T09:45:39;2.37;;;1.80;;
2748;SDS011;1382;52.142;11.618;2023-07-20T09:48:10;1.30;;;1.20;;
2748;SDS011;1382;52.142;11.618;2023-07-20T09:50:40;1.40;;;1.20;;
2748;SDS011;1382;52.142;11.618;2023-07-20T09:53:08;1.67;;;1.57;;
2748;SDS011;1382;52.142;11.618;2023-07-20T09:55:39;2.20;;;0.80;;
2748;SDS011;1382;52.142;11.618;2023-07-20T09:58:06;1.10;;;0.70;;
2748;SDS011;1382;52.142;11.618;2023-07-20T10:00:36;1.47;;;0.77;;
2748;SDS011;1382;52.142;11.618;2023-07-20T10:03:06;1.67;;;0.90;;
2748;SDS011;1382;52.142;11.618;2023-07-20T10:05:35;2.63;;;0.60;;
2748;SDS011;1382;52.142;11.618;2023-07-20T10:08:04;1.63;;;0.50;;
2748;SDS011;1382;52.142;11.618;2023-07-20T10:10:40;2.40;;;0.50;;
2748;SDS011;1382;52.142;11.618;2023-07-20T10:13:10;1.13;;;0.60;;
2748;SDS011;1382;52.142;11.618;2023-07-20T10:15:45;2.13;;;0.60;;
2748;SDS011;1382;52.142;11.618;2023-07-20T10:18:14;1.83;;;0.70;;
2748;SDS011;1382;52.142;11.618;2023-07-20T10:20:43;4.43;;;0.60;;
2748;SDS011;1382;52.142;11.618;2023-07-20T10:23:15;1.80;;;0.63;;
2748;SDS011;1382;52.142;11.618;2023-07-20T10:25:42;0.70;;;0.60;;
2748;SDS011;1382;52.142;11.618;2023-07-20T10:28:11;1.30;;;0.50;;
2748;SDS011;1382;52.142;11.618;2023-07-20T10:30:38;2.00;;;0.50;;
2748;SDS011;1382;52.142;11.618;2023-07-20T10:33:05;1.70;;;0.50;;
2748;SDS011;1382;52.142;11.618;2023-07-20T10:35:50;0.70;;;0.50;;
2748;SDS011;1382;52.142;11.618;2023-07-20T10:38:17;3.47;;;0.47;;
2748;SDS011;1382;52.142;11.618;2023-07-20T10:40:44;1.97;;;0.63;;
2748;SDS011;1382;52.142;11.618;2023-07-20T10:43:22;1.10;;;0.70;;
2748;SDS011;1382;52.142;11.618;2023-07-20T10:45:50;0.80;;;0.47;;
2748;SDS011;1382;52.142;11.618;2023-07-20T10:48:18;2.97;;;0.63;;
2748;SDS011;1382;52.142;11.618;2023-07-20T10:51:07;1.80;;;0.80;;
2748;SDS011;1382;52.142;11.618;2023-07-20T10:53:37;1.00;;;0.40;;
2748;SDS011;1382;52.142;11.618;2023-07-20T10:56:07;3.17;;;0.63;;
2748;SDS011;1382;52.142;11.618;2023-07-20T10:58:38;0.70;;;0.50;;
2748;SDS011;1382;52.142;11.618;2023-07-20T11:01:06;1.17;;;0.50;;
2748;SDS011;1382;52.142;11.618;2023-07-20T11:03:34;1.33;;;0.70;;
2748;SDS011;1382;52.142;11.618;2023-07-20T11:09:04;4.40;;;0.80;;
2748;SDS011;1382;52.142;11.618;2023-07-20T11:11:35;0.97;;;0.50;;
2748;SDS011;1382;52.142;11.618;2023-07-20T11:14:04;1.87;;;0.80;;
2748;SDS011;1382;52.142;11.618;2023-07-20T11:16:33;1.80;;;0.80;;
2748;SDS011;1382;52.142;11.618;2023-07-20T11:19:01;1.03;;;0.57;;
2748;SDS011;1382;52.142;11.618;2023-07-20T11:21:29;4.10;;;0.57;;
2748;SDS011;1382;52.142;11.618;2023-07-20T11:23:56;1.97;;;0.73;;
2748;SDS011;1382;52.142;11.618;2023-07-20T11:26:23;1.83;;;0.60;;
2748;SDS011;1382;52.142;11.618;2023-07-20T11:28:50;0.80;;;0.50;;
2748;SDS011;1382;52.142;11.618;2023-07-20T11:31:18;0.90;;;0.70;;
2748;SDS011;1382;52.142;11.618;2023-07-20T11:33:45;1.93;;;0.60;;
2748;SDS011;1382;52.142;11.618;2023-07-20T11:36:12;1.73;;;0.60;;
2748;SDS011;1382;52.142;11.618;2023-07-20T11:38:42;2.03;;;0.70;;
2748;SDS011;1382;52.142;11.618;2023-07-20T11:41:09;1.80;;;1.00;;
2748;SDS011;1382;52.142;11.618;2023-07-20T11:43:37;2.13;;;0.50;;
2748;SDS011;1382;52.142;11.618;2023-07-20T11:46:05;0.70;;;0.50;;
2748;SDS011;1382;52.142;11.618;2023-07-20T11:48:33;2.10;;;0.50;;
2748;SDS011;1382;52.142;11.618;2023-07-20T11:51:00;2.40;;;0.60;;
2748;SDS011;1382;52.142;11.618;2023-07-20T11:53:27;0.87;;;0.70;;
2748;SDS011;1382;52.142;11.618;2023-07-20T11:55:54;1.33;;;0.50;;
2748;SDS011;1382;52.142;11.618;2023-07-20T11:58:21;0.70;;;0.50;;
2748;SDS011;1382;52.142;11.618;2023-07-20T12:00:47;0.83;;;0.60;;
2748;SDS011;1382;52.142;11.618;2023-07-20T12:03:14;2.20;;;0.60;;
2748;SDS011;1382;52.142;11.618;2023-07-20T12:05:43;1.77;;;0.77;;
2748;SDS011;1382;52.142;11.618;2023-07-20T12:08:27;0.60;;;0.47;;
2748;SDS011;1382;52.142;11.618;2023-07-20T12:10:54;4.63;;;0.60;;
2748;SDS011;1382;52.142;11.618;2023-07-20T12:13:20;1.00;;;0.50;;
2748;SDS011;1382;52.142;11.618;2023-07-20T12:15:47;0.97;;;0.60;;
2748;SDS011;1382;52.142;11.618;2023-07-20T12:18:14;4.00;;;0.70;;
2748;SDS011;1382;52.142;11.618;2023-07-20T12:20:42;1.20;;;0.70;;
2748;SDS011;1382;52.142;11.618;2023-07-20T12:23:10;1.00;;;0.60;;
2748;SDS011;1382;52.142;11.618;2023-07-20T12:25:37;1.50;;;0.80;;
2748;SDS011;1382;52.142;11.618;2023-07-20T12:28:06;0.90;;;0.80;;
2748;SDS011;1382;52.142;11.618;2023-07-20T12:30:34;2.17;;;0.60;;
2748;SDS011;1382;52.142;11.618;2023-07-20T12:33:02;3.27;;;0.80;;
2748;SDS011;1382;52.142;11.618;2023-07-20T12:35:29;3.33;;;0.90;;
2748;SDS011;1382;52.142;11.618;2023-07-20T12:37:57;0.77;;;0.43;;
2748;SDS011;1382;52.142;11.618;2023-07-20T12:40:24;2.50;;;0.77;;
2748;SDS011;1382;52.142;11.618;2023-07-20T12:42:51;1.40;;;0.60;;
2748;SDS011;1382;52.142;11.618;2023-07-20T12:45:18;1.73;;;0.50;;
2748;SDS011;1382;52.142;11.618;2023-07-20T12:47:45;1.17;;;0.77;;
2748;SDS011;1382;52.142;11.618;2023-07-20T12:50:12;1.00;;;0.67;;
2748;SDS011;1382;52.142;11.618;2023-07-20T12:52:39;1.27;;;0.70;;
2748;SDS011;1382;52.142;11.618;2023-07-20T12:55:08;3.00;;;0.77;;
2748;SDS011;1382;52.142;11.618;2023-07-20T12:57:36;1.47;;;0.80;;
2748;SDS011;1382;52.142;11.618;2023-07-20T13:00:05;1.30;;;0.80;;
2748;SDS011;1382;52.142;11.618;2023-07-20T13:02:33;1.43;;;0.80;;
2748;SDS011;1382;52.142;11.618;2023-07-20T13:05:00;3.60;;;0.80;;
2748;SDS011;1382;52.142;11.618;2023-07-20T13:07:30;1.73;;;0.73;;
2748;SDS011;1382;52.142;11.618;2023-07-20T13:10:01;1.53;;;0.60;;
2748;SDS011;1382;52.142;11.618;2023-07-20T13:12:30;3.07;;;0.97;;
2748;SDS011;1382;52.142;11.618;2023-07-20T13:14:58;5.23;;;0.87;;
2748;SDS011;1382;52.142;11.618;2023-07-20T13:17:25;1.83;;;0.80;;
2748;SDS011;1382;52.142;11.618;2023-07-20T13:19:52;1.53;;;0.83;;
2748;SDS011;1382;52.142;11.618;2023-07-20T13:22:19;2.40;;;0.97;;
2748;SDS011;1382;52.142;11.618;2023-07-20T13:24:45;1.37;;;0.63;;
2748;SDS011;1382;52.142;11.618;2023-07-20T13:27:13;1.00;;;0.63;;
2748;SDS011;1382;52.142;11.618;2023-07-20T13:29:41;0.90;;;0.77;;
2748;SDS011;1382;52.142;11.618;2023-07-20T13:32:08;1.50;;;0.83;;
2748;SDS011;1382;52.142;11.618;2023-07-20T13:34:35;0.80;;;0.60;;
2748;SDS011;1382;52.142;11.618;2023-07-20T13:37:03;1.43;;;0.80;;
2748;SDS011;1382;52.142;11.618;2023-07-20T13:39:30;0.90;;;0.80;;
2748;SDS011;1382;52.142;11.618;2023-07-20T13:41:57;1.17;;;0.80;;
2748;SDS011;1382;52.142;11.618;2023-07-20T13:44:24;3.80;;;1.13;;
2748;SDS011;1382;52.142;11.618;2023-07-20T13:46:52;2.57;;;0.80;;
2748;SDS011;1382;52.142;11.618;2023-07-20T13:49:38;1.30;;;0.80;;
2748;SDS011;1382;52.142;11.618;2023-07-20T13:52:13;1.47;;;0.70;;
2748;SDS011;1382;52.142;11.618;2023-07-20T13:54:43;2.27;;;0.80;;
2748;SDS011;1382;52.142;11.618;2023-07-20T13:57:13;1.83;;;0.67;;
2748;SDS011;1382;52.142;11.618;2023-07-20T13:59:41;1.20;;;0.90;;
2748;SDS011;1382;52.142;11.618;2023-07-20T14:02:09;2.90;;;0.90;;
2748;SDS011;1382;52.142;11.618;2023-07-20T14:04:39;1.93;;;0.90;;
2748;SDS011;1382;52.142;11.618;2023-07-20T14:07:05;1.27;;;0.70;;
2748;SDS011;1382;52.142;11.618;2023-07-20T14:09:32;1.13;;;0.60;;
2748;SDS011;1382;52.142;11.618;2023-07-20T14:11:59;3.90;;;1.00;;
2748;SDS011;1382;52.142;11.618;2023-07-20T14:14:29;2.20;;;0.70;;
2748;SDS011;1382;52.142;11.618;2023-07-20T14:16:56;4.93;;;0.97;;
2748;SDS011;1382;52.142;11.618;2023-07-20T14:19:24;3.60;;;1.00;;
2748;SDS011;1382;52.142;11.618;2023-07-20T14:21:51;1.13;;;0.73;;
2748;SDS011;1382;52.142;11.618;2023-07-20T14:24:18;4.33;;;0.97;;
2748;SDS011;1382;52.142;11.618;2023-07-20T14:26:45;7.83;;;1.13;;
2748;SDS011;1382;52.142;11.618;2023-07-20T14:29:12;4.90;;;0.90;;
2748;SDS011;1382;52.142;11.618;2023-07-20T14:31:38;4.63;;;2.13;;
2748;SDS011;1382;52.142;11.618;2023-07-20T14:34:05;1.57;;;1.10;;
2748;SDS011;1382;52.142;11.618;2023-07-20T14:36:33;2.70;;;1.10;;
2748;SDS011;1382;52.142;11.618;2023-07-20T14:39:00;2.60;;;0.87;;
2748;SDS011;1382;52.142;11.618;2023-07-20T14:41:27;4.40;;;1.43;;
2748;SDS011;1382;52.142;11.618;2023-07-20T14:43:54;1.70;;;0.87;;
2748;SDS011;1382;52.142;11.618;2023-07-20T14:46:23;1.73;;;0.90;;
2748;SDS011;1382;52.142;11.618;2023-07-20T14:48:50;1.57;;;0.90;;
2748;SDS011;1382;52.142;11.618;2023-07-20T14:51:17;0.97;;;0.77;;
2748;SDS011;1382;52.142;11.618;2023-07-20T14:53:45;1.43;;;0.80;;
2748;SDS011;1382;52.142;11.618;2023-07-20T14:56:12;1.73;;;1.20;;
2748;SDS011;1382;52.142;11.618;2023-07-20T14:58:39;1.47;;;0.80;;
2748;SDS011;1382;52.142;11.618;2023-07-20T15:01:06;1.30;;;1.00;;
2748;SDS011;1382;52.142;11.618;2023-07-20T15:03:33;3.13;;;0.87;;
2748;SDS011;1382;52.142;11.618;2023-07-20T15:06:00;3.00;;;0.80;;
2748;SDS011;1382;52.142;11.618;2023-07-20T15:08:27;2.73;;;1.00;;
2748;SDS011;1382;52.142;11.618;2023-07-20T15:10:55;1.80;;;0.90;;
2748;SDS011;1382;52.142;11.618;2023-07-20T15:13:22;1.77;;;0.67;;